Lawrence, Minnesota
Current Conditions -  °F | °C
As of 12:15 AM on Saturday 29 Nov 2014 (Local Time) from KGPZ Reporting Station
Overcast Overcast  
Wind Chill:   Ceiling: 1500
Heat Index: 16°   Visibility: 9mi
Dew Point: 12°   Wind: 9mph
Humidity: 86%   Direction: 150°SSE
Pressure: 29.61"   Gusts: NA
Location:  47.3121°N, 93.3823°W
Report Text: KGPZ 290615Z AUTO 15008KT 9SM OVC015 M09/M11 A2961 RMK AO1
Loading
Personal Weather Stations






























Interactive Weather Map New forecast layout! Learn more

10-Day Weather Forecast

Advertisements
Track Severe Weather on mobile